createdAt,value
2018-03-17T00:00:35.156Z,20.33
2018-03-17T00:03:03.668Z,18.10
2018-03-17T00:05:32.062Z,19.30
2018-03-17T00:07:59.724Z,18.60
2018-03-17T00:10:27.355Z,19.67
2018-03-17T00:12:55.029Z,19.17
2018-03-17T00:15:23.499Z,19.83
2018-03-17T00:17:51.147Z,20.67
2018-03-17T00:20:18.831Z,20.80
2018-03-17T00:22:46.487Z,18.30
2018-03-17T00:25:19.627Z,18.93
2018-03-17T00:27:48.645Z,22.73
2018-03-17T00:30:16.401Z,18.93
2018-03-17T00:32:44.057Z,23.53
2018-03-17T00:35:11.688Z,22.10
2018-03-17T00:37:39.361Z,24.13
2018-03-17T00:40:07.020Z,24.17
2018-03-17T00:42:34.688Z,23.23
2018-03-17T00:45:02.315Z,20.93
2018-03-17T00:47:29.984Z,20.03
2018-03-17T00:49:57.694Z,23.20
2018-03-17T00:52:25.347Z,21.40
2018-03-17T00:54:53.043Z,20.03
2018-03-17T00:57:20.680Z,21.10
2018-03-17T00:59:48.342Z,20.93
2018-03-17T01:02:16.791Z,21.33
2018-03-17T01:04:45.196Z,21.77
2018-03-17T01:07:12.895Z,21.43
2018-03-17T01:09:41.299Z,21.67
2018-03-17T01:12:08.956Z,21.27
2018-03-17T01:14:41.109Z,21.70
2018-03-17T01:17:08.812Z,19.73
2018-03-17T01:19:36.463Z,20.50
2018-03-17T01:22:04.908Z,19.43
2018-03-17T01:24:32.542Z,19.43
2018-03-17T01:27:00.971Z,19.73
2018-03-17T01:29:29.150Z,20.37
2018-03-17T01:31:57.580Z,20.27
2018-03-17T01:34:25.263Z,20.10
2018-03-17T01:36:52.913Z,19.47
2018-03-17T01:39:20.576Z,19.90
2018-03-17T01:41:48.322Z,20.03
2018-03-17T01:44:15.999Z,19.63
2018-03-17T01:46:44.436Z,17.63
2018-03-17T01:49:12.099Z,18.17
2018-03-17T01:51:39.830Z,19.80
2018-03-17T01:54:19.395Z,18.07
2018-03-17T01:56:47.059Z,18.60
2018-03-17T01:59:14.696Z,17.93
2018-03-17T02:01:42.363Z,17.87
2018-03-17T02:04:09.996Z,17.37
2018-03-17T02:06:37.660Z,20.23
2018-03-17T02:09:05.339Z,19.70
2018-03-17T02:11:33.027Z,19.10
2018-03-17T02:14:00.682Z,20.07
2018-03-17T02:16:28.340Z,18.20
2018-03-17T02:18:56.028Z,18.63
2018-03-17T02:21:23.668Z,18.20
2018-03-17T02:23:51.332Z,18.50
2018-03-17T02:26:18.976Z,18.93
2018-03-17T02:28:47.408Z,18.00
2018-03-17T02:31:15.092Z,19.20
2018-03-17T02:33:42.739Z,18.37
2018-03-17T02:36:10.415Z,20.60
2018-03-17T02:38:38.072Z,20.00
2018-03-17T02:41:05.758Z,17.83
2018-03-17T02:43:33.396Z,19.13
2018-03-17T02:46:01.068Z,19.90
2018-03-17T02:48:28.727Z,19.63
2018-03-17T02:50:56.368Z,19.33
2018-03-17T02:53:24.032Z,18.73
2018-03-17T02:55:51.979Z,18.43
2018-03-17T02:58:19.663Z,19.57
2018-03-17T03:00:47.302Z,19.80
2018-03-17T03:03:14.956Z,18.97
2018-03-17T03:05:42.589Z,19.57
2018-03-17T03:08:10.260Z,18.67
2018-03-17T03:10:37.904Z,20.37
2018-03-17T03:13:05.518Z,19.03
2018-03-17T03:15:33.177Z,18.97
2018-03-17T03:18:00.814Z,19.37
2018-03-17T03:20:28.488Z,17.83
2018-03-17T03:22:56.126Z,19.03
2018-03-17T03:25:23.796Z,18.90
2018-03-17T03:27:52.256Z,18.27
2018-03-17T03:30:19.903Z,19.53
2018-03-17T03:32:47.563Z,19.27
2018-03-17T03:35:15.970Z,18.47
2018-03-17T03:37:43.619Z,20.53
2018-03-17T03:40:11.272Z,17.80
2018-03-17T03:42:38.916Z,19.20
2018-03-17T03:45:06.557Z,20.00
2018-03-17T03:47:34.256Z,19.50
2018-03-17T03:50:01.951Z,18.27
2018-03-17T03:55:27.562Z,18.77
2018-03-17T03:57:55.261Z,19.27
2018-03-17T04:00:22.919Z,19.07
2018-03-17T04:02:50.559Z,19.80
2018-03-17T04:05:18.975Z,18.97
2018-03-17T04:07:47.391Z,19.13
2018-03-17T04:10:15.047Z,18.90
2018-03-17T04:12:43.443Z,20.60
2018-03-17T04:15:11.261Z,18.90
2018-03-17T04:17:38.955Z,18.80
2018-03-17T04:20:06.599Z,18.70
2018-03-17T04:22:34.285Z,18.47
2018-03-17T04:25:01.932Z,18.93
2018-03-17T04:27:29.616Z,18.50
2018-03-17T04:29:57.255Z,17.77
2018-03-17T04:32:25.461Z,16.80
2018-03-17T04:34:53.208Z,17.87
2018-03-17T04:37:21.199Z,16.67
2018-03-17T04:39:48.858Z,16.60
2018-03-17T04:42:16.492Z,17.43
2018-03-17T04:44:44.149Z,17.43
2018-03-17T04:47:12.495Z,17.03
2018-03-17T04:49:40.190Z,17.17
2018-03-17T04:52:07.839Z,16.70
2018-03-17T04:54:35.606Z,16.73
2018-03-17T04:57:03.327Z,16.23
2018-03-17T04:59:30.977Z,16.67
2018-03-17T05:01:59.382Z,16.87
2018-03-17T05:04:27.801Z,15.77
2018-03-17T05:06:56.210Z,16.60
2018-03-17T05:09:23.843Z,15.40
2018-03-17T05:11:51.523Z,15.50
2018-03-17T05:14:19.241Z,16.10
2018-03-17T05:16:46.901Z,16.17
2018-03-17T05:19:14.582Z,16.70
2018-03-17T05:21:42.221Z,16.63
2018-03-17T05:24:09.912Z,17.07
2018-03-17T05:26:38.322Z,17.60
2018-03-17T05:29:06.756Z,16.90
2018-03-17T05:31:34.491Z,16.53
2018-03-17T05:34:02.103Z,17.00
2018-03-17T05:36:30.589Z,17.60
2018-03-17T05:38:58.436Z,17.17
2018-03-17T05:41:26.100Z,16.00
2018-03-17T05:43:54.497Z,17.83
2018-03-17T05:46:22.277Z,17.33
2018-03-17T05:48:49.939Z,16.53
2018-03-17T05:51:18.379Z,17.63
2018-03-17T05:53:46.071Z,16.83
2018-03-17T05:56:13.747Z,17.27
2018-03-17T05:58:41.430Z,16.13
2018-03-17T06:01:09.081Z,16.50
2018-03-17T06:03:37.472Z,15.80
2018-03-17T06:06:05.176Z,16.47
2018-03-17T06:08:33.576Z,16.00
2018-03-17T06:11:02.012Z,16.37
2018-03-17T06:13:29.656Z,15.63
2018-03-17T06:15:57.285Z,15.87
2018-03-17T06:18:24.964Z,16.20
2018-03-17T06:20:52.596Z,15.67
2018-03-17T06:23:20.267Z,16.90
2018-03-17T06:25:47.904Z,16.47
2018-03-17T06:28:15.559Z,15.93
2018-03-17T06:30:43.188Z,16.50
2018-03-17T06:33:10.835Z,15.77
2018-03-17T06:35:38.480Z,15.77
2018-03-17T06:38:06.284Z,15.33
2018-03-17T06:40:33.923Z,15.10
2018-03-17T06:43:01.557Z,15.77
2018-03-17T06:45:29.223Z,15.80
2018-03-17T06:47:57.624Z,16.10
2018-03-17T06:50:26.076Z,15.13
2018-03-17T06:52:53.783Z,15.00
2018-03-17T06:55:21.424Z,15.20
2018-03-17T06:57:49.050Z,15.43
2018-03-17T07:00:16.754Z,14.67
2018-03-17T07:02:45.132Z,15.90
2018-03-17T07:05:12.747Z,15.23
2018-03-17T07:07:40.429Z,15.50
2018-03-17T07:10:08.099Z,14.67
2018-03-17T07:12:35.827Z,14.47
2018-03-17T07:15:03.527Z,15.17
2018-03-17T07:17:31.381Z,14.13
2018-03-17T07:19:59.127Z,14.53
2018-03-17T07:22:26.768Z,14.33
2018-03-17T07:24:54.427Z,14.70
2018-03-17T07:27:22.095Z,14.80
2018-03-17T07:29:50.548Z,14.17
2018-03-17T07:32:18.187Z,13.63
2018-03-17T07:34:46.594Z,13.60
2018-03-17T07:37:14.272Z,14.07
2018-03-17T07:39:41.918Z,13.03
2018-03-17T07:42:09.624Z,11.97
2018-03-17T07:44:37.246Z,12.70
2018-03-17T07:47:04.911Z,11.33
2018-03-17T07:49:32.547Z,12.83
2018-03-17T07:52:00.191Z,11.43
2018-03-17T07:54:27.902Z,11.70
2018-03-17T07:56:55.625Z,11.57
2018-03-17T07:59:23.263Z,12.17
2018-03-17T08:01:50.916Z,11.13
2018-03-17T08:04:18.576Z,10.90
2018-03-17T08:06:46.997Z,11.27
2018-03-17T08:09:14.663Z,10.83
2018-03-17T08:11:43.112Z,10.63
2018-03-17T08:14:10.733Z,10.77
2018-03-17T08:16:38.412Z,11.83
2018-03-17T08:19:06.056Z,11.83
2018-03-17T08:21:33.739Z,11.13
2018-03-17T08:24:01.377Z,11.00
2018-03-17T08:26:29.020Z,10.87
2018-03-17T08:28:56.898Z,10.57
2018-03-17T08:31:25.330Z,10.83
2018-03-17T08:36:52.186Z,10.77
2018-03-17T08:39:19.883Z,10.93
2018-03-17T08:41:47.682Z,10.60
2018-03-17T08:44:15.360Z,10.40
2018-03-17T08:46:43.084Z,10.17
2018-03-17T08:49:11.556Z,10.93
2018-03-17T08:51:59.879Z,11.63
2018-03-17T08:54:28.394Z,11.33
2018-03-17T08:56:56.857Z,11.43
2018-03-17T08:59:24.541Z,11.70
2018-03-17T09:01:52.321Z,12.13
2018-03-17T09:04:20.174Z,11.87
2018-03-17T09:06:48.760Z,12.07
2018-03-17T09:09:16.853Z,12.10
2018-03-17T09:11:44.577Z,11.80
2018-03-17T09:14:12.320Z,11.57
2018-03-17T09:16:40.117Z,12.40
2018-03-17T09:19:24.683Z,12.10
2018-03-17T09:21:53.211Z,12.20
2018-03-17T09:24:21.062Z,11.97
2018-03-17T09:26:48.747Z,12.10
2018-03-17T09:29:16.439Z,11.90
2018-03-17T09:31:44.227Z,11.77
2018-03-17T09:34:11.975Z,11.87
2018-03-17T09:36:39.775Z,12.20
2018-03-17T09:39:07.539Z,11.17
2018-03-17T09:44:36.147Z,11.30
2018-03-17T09:47:03.801Z,11.37
2018-03-17T09:49:31.440Z,11.77
2018-03-17T09:51:59.120Z,12.20
2018-03-17T09:54:26.767Z,13.47
2018-03-17T09:56:55.224Z,11.77
2018-03-17T09:59:23.736Z,11.90
2018-03-17T10:01:51.399Z,12.40
2018-03-17T10:04:19.936Z,11.87
2018-03-17T10:06:48.344Z,11.93
2018-03-17T10:09:16.015Z,12.20
2018-03-17T10:11:43.656Z,11.83
2018-03-17T10:14:11.358Z,12.27
2018-03-17T10:16:39.767Z,11.87
2018-03-17T10:19:08.329Z,12.87
2018-03-17T10:21:35.992Z,11.90
2018-03-17T10:24:03.642Z,12.57
2018-03-17T10:26:31.351Z,12.33
2018-03-17T10:28:59.000Z,12.60
2018-03-17T10:31:26.655Z,12.10
2018-03-17T10:33:55.074Z,11.93
2018-03-17T10:36:22.873Z,12.07
2018-03-17T10:38:50.588Z,11.83
2018-03-17T10:41:18.267Z,11.00
2018-03-17T10:43:46.123Z,11.50
2018-03-17T10:46:13.707Z,13.07
2018-03-17T10:48:42.140Z,11.63
2018-03-17T10:51:09.869Z,12.47
2018-03-17T10:53:37.564Z,11.93
2018-03-17T10:56:05.252Z,12.40
2018-03-17T10:58:33.658Z,12.13
2018-03-17T11:01:01.367Z,12.23
2018-03-17T11:03:29.003Z,12.67
2018-03-17T11:05:56.804Z,12.33
2018-03-17T11:08:25.206Z,12.47
2018-03-17T11:16:40.244Z,12.37
2018-03-17T11:19:07.940Z,13.07
2018-03-17T11:21:35.561Z,12.47
2018-03-17T11:24:03.232Z,11.83
2018-03-17T11:26:30.869Z,12.50
2018-03-17T11:28:58.611Z,11.83
2018-03-17T11:31:26.240Z,11.93
2018-03-17T11:33:53.948Z,12.17
2018-03-17T11:36:22.337Z,12.10
2018-03-17T11:38:50.007Z,12.17
2018-03-17T11:41:18.480Z,11.47
2018-03-17T11:43:46.136Z,11.90
2018-03-17T11:46:13.791Z,11.37
2018-03-17T11:48:42.196Z,12.80
2018-03-17T11:51:10.681Z,11.63
2018-03-17T11:53:38.362Z,10.87
2018-03-17T11:56:06.068Z,11.70
2018-03-17T11:58:33.712Z,11.03
2018-03-17T12:01:01.389Z,10.60
2018-03-17T12:03:29.107Z,10.50
2018-03-17T12:05:56.755Z,10.90
2018-03-17T12:08:24.403Z,12.10
2018-03-17T12:10:52.044Z,11.03
2018-03-17T12:13:19.695Z,12.07
2018-03-17T12:15:48.124Z,11.30
2018-03-17T12:18:15.804Z,11.03
2018-03-17T12:20:44.224Z,11.07
2018-03-17T12:23:11.865Z,12.17
2018-03-17T12:25:39.508Z,14.20
2018-03-17T12:28:07.164Z,11.97
2018-03-17T12:30:35.595Z,12.43
2018-03-17T12:36:14.762Z,12.40
2018-03-17T12:41:45.662Z,10.03
2018-03-17T12:44:14.103Z,11.53
2018-03-17T12:46:41.751Z,11.20
2018-03-17T12:49:10.179Z,10.70
2018-03-17T12:51:38.580Z,12.43
2018-03-17T12:54:07.027Z,10.73
2018-03-17T12:56:34.647Z,11.00
2018-03-17T12:59:02.512Z,10.20
2018-03-17T13:01:30.156Z,10.63
2018-03-17T13:03:58.635Z,9.73
2018-03-17T13:06:26.288Z,10.67
2018-03-17T13:08:54.003Z,12.30
2018-03-17T13:11:21.671Z,11.07
2018-03-17T13:13:49.372Z,10.67
2018-03-17T13:16:17.043Z,10.27
2018-03-17T13:18:44.808Z,9.73
2018-03-17T13:21:13.228Z,9.57
2018-03-17T13:23:40.859Z,9.77
2018-03-17T13:26:08.539Z,9.27
2018-03-17T13:28:36.203Z,9.13
2018-03-17T13:31:03.909Z,9.50
2018-03-17T13:33:31.559Z,8.53
2018-03-17T13:36:10.917Z,8.40
2018-03-17T13:38:39.334Z,7.83
2018-03-17T13:41:07.053Z,8.40
2018-03-17T13:43:34.693Z,8.23
2018-03-17T13:46:03.158Z,8.50
2018-03-17T13:48:30.851Z,9.17
2018-03-17T13:50:59.303Z,9.47
2018-03-17T13:53:27.699Z,9.57
2018-03-17T13:55:56.115Z,9.63
2018-03-17T13:58:24.528Z,9.63
2018-03-17T14:00:52.927Z,9.00
2018-03-17T14:03:21.346Z,9.50
2018-03-17T14:05:49.341Z,8.17
2018-03-17T14:08:17.200Z,9.63
2018-03-17T14:10:45.510Z,9.60
2018-03-17T14:13:13.167Z,9.70
2018-03-17T14:15:40.803Z,10.30
2018-03-17T14:18:08.522Z,9.10
2018-03-17T14:20:36.151Z,9.47
2018-03-17T14:23:04.580Z,9.10
2018-03-17T14:25:32.220Z,9.60
2018-03-17T14:27:59.919Z,9.20
2018-03-17T14:30:27.554Z,10.03
2018-03-17T14:32:56.015Z,9.40
2018-03-17T14:35:23.704Z,9.27
2018-03-17T14:37:51.330Z,8.40
2018-03-17T14:40:18.984Z,8.60
2018-03-17T14:42:46.616Z,9.77
2018-03-17T14:45:15.036Z,8.73
2018-03-17T14:47:43.427Z,9.17
2018-03-17T14:50:11.856Z,8.40
2018-03-17T14:52:39.499Z,8.50
2018-03-17T14:58:11.591Z,8.10
2018-03-17T15:00:39.306Z,8.40
2018-03-17T15:03:06.915Z,9.17
2018-03-17T15:05:34.702Z,9.70
2018-03-17T15:08:02.378Z,9.33
2018-03-17T15:10:30.272Z,9.37
2018-03-17T15:12:57.931Z,9.50
2018-03-17T15:15:26.165Z,9.93
2018-03-17T15:17:53.804Z,9.53
2018-03-17T15:20:21.655Z,9.10
2018-03-17T15:22:49.523Z,9.50
2018-03-17T15:28:10.207Z,10.57
2018-03-17T15:33:35.091Z,9.90
2018-03-17T15:36:09.539Z,10.27
2018-03-17T15:38:37.210Z,9.57
2018-03-17T15:41:04.872Z,9.80
2018-03-17T15:43:32.558Z,9.93
2018-03-17T15:46:22.722Z,10.53
2018-03-17T15:48:50.406Z,10.37
2018-03-17T15:54:13.814Z,9.47
2018-03-17T15:56:42.252Z,12.73
2018-03-17T15:59:09.899Z,12.10
2018-03-17T16:01:37.584Z,11.47
2018-03-17T16:04:05.472Z,10.70
2018-03-17T16:06:33.175Z,10.10
2018-03-17T16:09:00.823Z,9.87
2018-03-17T16:11:28.486Z,10.60
2018-03-17T16:13:56.179Z,10.17
2018-03-17T16:16:24.551Z,10.10
2018-03-17T16:18:52.247Z,10.80
2018-03-17T16:21:19.916Z,10.53
2018-03-17T16:29:47.576Z,11.57
2018-03-17T16:32:15.307Z,11.00
2018-03-17T16:34:43.757Z,14.63
2018-03-17T16:37:11.410Z,11.53
2018-03-17T16:39:39.836Z,12.27
2018-03-17T16:42:07.487Z,12.53
2018-03-17T16:44:35.167Z,11.30
2018-03-17T16:47:02.803Z,11.27
2018-03-17T16:49:30.509Z,11.70
2018-03-17T16:51:58.140Z,11.00
2018-03-17T16:54:26.618Z,11.07
2018-03-17T16:56:54.271Z,11.27
2018-03-17T16:59:21.937Z,12.10
2018-03-17T17:01:50.395Z,12.23
2018-03-17T17:04:18.063Z,10.87
2018-03-17T17:06:45.762Z,11.13
2018-03-17T17:09:13.400Z,11.77
2018-03-17T17:11:41.808Z,11.37
2018-03-17T17:14:09.598Z,10.97
2018-03-17T17:16:38.879Z,11.23
2018-03-17T17:19:06.531Z,10.97
2018-03-17T17:21:34.219Z,10.23
2018-03-17T17:24:01.875Z,11.30
2018-03-17T17:26:29.908Z,10.20
2018-03-17T17:28:58.325Z,10.60
2018-03-17T17:31:25.995Z,10.63
2018-03-17T17:33:54.799Z,10.10
2018-03-17T17:36:22.440Z,9.83
2018-03-17T17:38:50.095Z,10.90
2018-03-17T17:41:18.517Z,9.47
2018-03-17T17:43:46.227Z,10.03
2018-03-17T17:46:13.870Z,9.33
2018-03-17T17:48:42.295Z,10.20
2018-03-17T17:51:09.900Z,9.37
2018-03-17T17:53:37.572Z,10.30
2018-03-17T17:56:05.196Z,8.53
2018-03-17T17:58:32.860Z,8.50
2018-03-17T18:01:00.550Z,8.83
2018-03-17T18:03:28.276Z,8.40
2018-03-17T18:05:55.924Z,9.07
2018-03-17T18:08:23.570Z,10.20
2018-03-17T18:10:51.208Z,9.43
2018-03-17T18:13:18.875Z,8.97
2018-03-17T18:15:48.306Z,8.83
2018-03-17T18:18:16.730Z,8.20
2018-03-17T18:20:44.412Z,8.37
2018-03-17T18:26:25.030Z,8.40
2018-03-17T18:32:02.906Z,16.80
2018-03-17T18:34:31.504Z,9.63
2018-03-17T18:36:59.931Z,9.53
2018-03-17T18:39:27.572Z,8.47
2018-03-17T18:41:55.820Z,8.60
2018-03-17T18:50:24.173Z,9.17
2018-03-17T18:52:51.824Z,8.70
2018-03-17T18:55:19.433Z,8.73
2018-03-17T18:57:47.092Z,7.83
2018-03-17T19:00:14.721Z,7.70
2018-03-17T19:02:42.399Z,7.23
2018-03-17T19:05:09.996Z,8.43
2018-03-17T19:07:37.657Z,8.03
2018-03-17T19:10:06.114Z,8.80
2018-03-17T19:12:34.606Z,7.87
2018-03-17T19:15:02.234Z,7.63
2018-03-17T19:17:29.909Z,7.90
2018-03-17T19:19:58.320Z,7.77
2018-03-17T19:22:27.151Z,8.17
2018-03-17T19:24:54.835Z,7.80
2018-03-17T19:27:22.611Z,7.47
2018-03-17T19:29:50.269Z,7.40
2018-03-17T19:32:17.915Z,7.27
2018-03-17T19:34:45.579Z,8.30
2018-03-17T19:37:14.000Z,8.27
2018-03-17T19:39:41.674Z,7.20
2018-03-17T19:45:14.392Z,7.83
2018-03-17T19:47:42.048Z,6.87
2018-03-17T19:50:09.715Z,8.10
2018-03-17T19:52:38.095Z,7.93
2018-03-17T19:55:05.751Z,7.77
2018-03-17T19:57:33.427Z,7.07
2018-03-17T20:00:01.102Z,7.07
2018-03-17T20:02:28.776Z,8.33
2018-03-17T20:04:56.488Z,7.70
2018-03-17T20:07:24.228Z,7.93
2018-03-17T20:09:51.875Z,7.63
2018-03-17T20:12:19.784Z,7.70
2018-03-17T20:14:48.591Z,7.30
2018-03-17T20:17:16.271Z,8.33
2018-03-17T20:19:43.870Z,7.93
2018-03-17T20:22:11.531Z,8.27
2018-03-17T20:24:39.915Z,7.60
2018-03-17T20:27:07.608Z,8.20
2018-03-17T20:29:36.012Z,7.53
2018-03-17T20:32:03.680Z,7.47
2018-03-17T20:34:31.657Z,7.57
2018-03-17T20:36:59.323Z,7.90
2018-03-17T20:39:26.961Z,7.67
2018-03-17T20:41:54.623Z,8.20
2018-03-17T20:44:22.329Z,7.47
2018-03-17T20:46:49.985Z,8.43
2018-03-17T20:49:17.639Z,7.87
2018-03-17T20:51:46.039Z,9.87
2018-03-17T20:54:14.458Z,7.87
2018-03-17T20:56:42.071Z,7.80
2018-03-17T20:59:09.769Z,8.00
2018-03-17T21:01:37.422Z,7.93
2018-03-17T21:04:05.131Z,8.37
2018-03-17T21:06:32.776Z,11.27
2018-03-17T21:09:01.228Z,8.80
2018-03-17T21:11:28.839Z,8.27
2018-03-17T21:13:56.490Z,20.47
2018-03-17T21:16:24.913Z,8.13
2018-03-17T21:18:52.858Z,8.47
2018-03-17T21:21:20.558Z,8.40
2018-03-17T21:23:48.178Z,8.83
2018-03-17T21:26:15.820Z,8.00
2018-03-17T21:28:43.483Z,8.27
2018-03-17T21:31:11.909Z,8.70
2018-03-17T21:33:39.556Z,9.13
2018-03-17T21:36:07.207Z,9.67
2018-03-17T21:38:34.818Z,9.63
2018-03-17T21:41:02.434Z,10.50
2018-03-17T21:43:30.121Z,10.83
2018-03-17T21:45:57.763Z,9.57
2018-03-17T21:48:25.451Z,9.17
2018-03-17T21:50:53.072Z,10.00
2018-03-17T21:53:20.799Z,9.30
2018-03-17T21:55:48.475Z,9.70
2018-03-17T21:58:16.207Z,9.50
2018-03-17T22:00:43.872Z,9.17
2018-03-17T22:03:11.987Z,9.13
2018-03-17T22:05:39.679Z,10.03
2018-03-17T22:08:07.339Z,9.63
2018-03-17T22:10:35.020Z,9.93
2018-03-17T22:13:02.654Z,10.20
2018-03-17T22:15:30.373Z,9.80
2018-03-17T22:17:58.755Z,10.00
2018-03-17T22:20:26.563Z,10.80
2018-03-17T22:22:54.968Z,11.13
2018-03-17T22:25:23.973Z,10.77
2018-03-17T22:27:51.934Z,9.93
2018-03-17T22:30:19.625Z,11.57
2018-03-17T22:32:47.268Z,10.70
2018-03-17T22:35:14.957Z,11.27
2018-03-17T22:37:42.584Z,12.20
2018-03-17T22:40:10.272Z,11.33
2018-03-17T22:42:37.946Z,12.33
2018-03-17T22:45:05.625Z,12.03
2018-03-17T22:47:33.317Z,12.47
2018-03-17T22:50:00.970Z,11.03
2018-03-17T22:52:29.412Z,12.53
2018-03-17T22:54:57.054Z,12.70
2018-03-17T22:57:25.478Z,13.30
2018-03-17T23:03:03.715Z,11.63
2018-03-17T23:05:31.356Z,13.23
2018-03-17T23:07:59.034Z,11.30
2018-03-17T23:10:26.669Z,12.17
2018-03-17T23:12:55.135Z,12.37
2018-03-17T23:15:22.821Z,12.70
2018-03-17T23:17:50.448Z,12.07
2018-03-17T23:20:19.050Z,11.20
2018-03-17T23:22:47.475Z,11.70
2018-03-17T23:25:15.127Z,10.63
2018-03-17T23:27:42.747Z,11.57
2018-03-17T23:30:10.405Z,11.20
2018-03-17T23:32:38.887Z,11.07
2018-03-17T23:35:06.586Z,11.30
2018-03-17T23:37:34.207Z,11.30
2018-03-17T23:40:01.930Z,12.77
2018-03-17T23:42:29.567Z,11.70
2018-03-17T23:44:58.028Z,12.23
2018-03-17T23:47:25.742Z,11.53
2018-03-17T23:49:53.392Z,11.80
2018-03-17T23:52:21.066Z,12.07
2018-03-17T23:54:48.735Z,11.37
2018-03-17T23:57:16.446Z,11.00
2018-03-17T23:59:44.095Z,11.23
